sensor_id;sensor_type;location;lat;lon;timestamp;pressure;altitude;pressure_sealevel;temperature;humidity
72558;BME280;60583;50.094;8.748;2023-08-08T00:00:41;100448.63;;;14.18;79.77
72558;BME280;60583;50.094;8.748;2023-08-08T00:03:07;100447.50;;;14.07;80.56
72558;BME280;60583;50.094;8.748;2023-08-08T00:05:34;100436.47;;;13.97;80.34
72558;BME280;60583;50.094;8.748;2023-08-08T00:07:59;100439.41;;;13.89;81.05
72558;BME280;60583;50.094;8.748;2023-08-08T00:10:25;100441.50;;;13.87;81.43
72558;BME280;60583;50.094;8.748;2023-08-08T00:12:50;100443.19;;;13.81;81.54
72558;BME280;60583;50.094;8.748;2023-08-08T00:15:15;100427.53;;;13.78;81.21
72558;BME280;60583;50.094;8.748;2023-08-08T00:17:41;100427.53;;;13.78;81.33
72558;BME280;60583;50.094;8.748;2023-08-08T00:20:07;100426.28;;;13.81;81.49
72558;BME280;60583;50.094;8.748;2023-08-08T00:22:33;100426.38;;;13.68;82.52
72558;BME280;60583;50.094;8.748;2023-08-08T00:24:58;100443.28;;;13.68;82.92
72558;BME280;60583;50.094;8.748;2023-08-08T00:27:24;100431.13;;;13.66;82.74
72558;BME280;60583;50.094;8.748;2023-08-08T00:29:50;100444.88;;;13.76;82.36
72558;BME280;60583;50.094;8.748;2023-08-08T00:32:16;100428.06;;;13.62;82.81
72558;BME280;60583;50.094;8.748;2023-08-08T00:34:41;100438.31;;;13.72;83.02
72558;BME280;60583;50.094;8.748;2023-08-08T00:37:06;100441.44;;;13.69;82.64
72558;BME280;60583;50.094;8.748;2023-08-08T00:39:32;100433.16;;;13.70;82.52
72558;BME280;60583;50.094;8.748;2023-08-08T00:41:57;100433.31;;;13.75;82.75
72558;BME280;60583;50.094;8.748;2023-08-08T00:44:23;100435.31;;;13.86;82.26
72558;BME280;60583;50.094;8.748;2023-08-08T00:46:48;100431.97;;;13.91;81.68
72558;BME280;60583;50.094;8.748;2023-08-08T00:49:14;100430.94;;;13.92;81.94
72558;BME280;60583;50.094;8.748;2023-08-08T00:51:40;100414.28;;;13.83;82.24
72558;BME280;60583;50.094;8.748;2023-08-08T00:54:05;100433.63;;;13.92;82.15
72558;BME280;60583;50.094;8.748;2023-08-08T00:56:31;100426.59;;;13.91;82.14
72558;BME280;60583;50.094;8.748;2023-08-08T00:58:57;100426.38;;;13.92;81.83
72558;BME280;60583;50.094;8.748;2023-08-08T01:01:23;100425.75;;;13.97;81.48
72558;BME280;60583;50.094;8.748;2023-08-08T01:03:48;100411.94;;;13.93;81.87
72558;BME280;60583;50.094;8.748;2023-08-08T01:06:44;100415.81;;;13.97;82.00
72558;BME280;60583;50.094;8.748;2023-08-08T01:09:21;100419.13;;;13.99;81.87
72558;BME280;60583;50.094;8.748;2023-08-08T01:11:49;100402.25;;;13.92;81.80
72558;BME280;60583;50.094;8.748;2023-08-08T01:14:17;100399.97;;;13.96;81.81
72558;BME280;60583;50.094;8.748;2023-08-08T01:16:44;100414.94;;;14.03;81.50
72558;BME280;60583;50.094;8.748;2023-08-08T01:19:18;100399.72;;;13.97;81.42
72558;BME280;60583;50.094;8.748;2023-08-08T01:21:48;100401.81;;;13.95;82.08
72558;BME280;60583;50.094;8.748;2023-08-08T01:24:18;100402.25;;;13.92;81.82
72558;BME280;60583;50.094;8.748;2023-08-08T01:26:46;100412.50;;;14.02;82.02
72558;BME280;60583;50.094;8.748;2023-08-08T01:29:11;100404.50;;;13.95;82.29
72558;BME280;60583;50.094;8.748;2023-08-08T01:31:37;100388.97;;;13.79;82.65
72558;BME280;60583;50.094;8.748;2023-08-08T01:34:02;100401.50;;;13.85;82.86
72558;BME280;60583;50.094;8.748;2023-08-08T01:36:34;100408.09;;;13.83;82.69
72558;BME280;60583;50.094;8.748;2023-08-08T01:39:01;100411.78;;;13.88;82.90
72558;BME280;60583;50.094;8.748;2023-08-08T01:41:31;100401.75;;;13.77;83.44
72558;BME280;60583;50.094;8.748;2023-08-08T01:43:58;100398.47;;;13.75;83.95
72558;BME280;60583;50.094;8.748;2023-08-08T01:46:24;100387.75;;;13.75;83.38
72558;BME280;60583;50.094;8.748;2023-08-08T01:48:50;100402.53;;;13.84;83.44
72558;BME280;60583;50.094;8.748;2023-08-08T01:51:15;100385.25;;;13.80;82.98
72558;BME280;60583;50.094;8.748;2023-08-08T01:53:40;100397.03;;;13.79;83.72
72558;BME280;60583;50.094;8.748;2023-08-08T01:56:06;100388.84;;;13.68;83.97
72558;BME280;60583;50.094;8.748;2023-08-08T01:58:32;100389.75;;;13.62;84.07
72558;BME280;60583;50.094;8.748;2023-08-08T02:00:57;100396.06;;;13.67;84.06
72558;BME280;60583;50.094;8.748;2023-08-08T02:03:22;100364.06;;;13.48;84.34
72558;BME280;60583;50.094;8.748;2023-08-08T02:05:48;100393.03;;;13.64;84.19
72558;BME280;60583;50.094;8.748;2023-08-08T02:08:13;100385.84;;;13.58;84.26
72558;BME280;60583;50.094;8.748;2023-08-08T02:10:38;100393.44;;;13.61;84.62
72558;BME280;60583;50.094;8.748;2023-08-08T02:13:04;100394.59;;;13.47;85.10
72558;BME280;60583;50.094;8.748;2023-08-08T02:15:29;100397.66;;;13.50;85.24
72558;BME280;60583;50.094;8.748;2023-08-08T02:17:55;100389.84;;;13.49;85.37
72558;BME280;60583;50.094;8.748;2023-08-08T02:20:20;100367.31;;;13.31;85.84
72558;BME280;60583;50.094;8.748;2023-08-08T02:22:46;100388.66;;;13.38;85.76
72558;BME280;60583;50.094;8.748;2023-08-08T02:25:11;100393.63;;;13.34;86.35
72558;BME280;60583;50.094;8.748;2023-08-08T02:27:36;100390.81;;;13.23;86.60
72558;BME280;60583;50.094;8.748;2023-08-08T02:30:02;100367.91;;;12.96;87.69
72558;BME280;60583;50.094;8.748;2023-08-08T02:32:28;100400.34;;;13.12;87.92
72558;BME280;60583;50.094;8.748;2023-08-08T02:34:53;100377.72;;;13.02;88.36
72558;BME280;60583;50.094;8.748;2023-08-08T02:37:18;100375.91;;;13.09;87.92
72558;BME280;60583;50.094;8.748;2023-08-08T02:39:44;100377.16;;;13.06;88.66
72558;BME280;60583;50.094;8.748;2023-08-08T02:42:10;100388.06;;;12.98;88.79
72558;BME280;60583;50.094;8.748;2023-08-08T02:44:35;100387.00;;;13.06;88.75
72558;BME280;60583;50.094;8.748;2023-08-08T02:47:01;100385.16;;;13.06;88.82
72558;BME280;60583;50.094;8.748;2023-08-08T02:49:26;100370.31;;;13.04;88.31
72558;BME280;60583;50.094;8.748;2023-08-08T02:51:51;100378.34;;;13.04;89.19
72558;BME280;60583;50.094;8.748;2023-08-08T02:54:17;100366.84;;;12.97;88.86
72558;BME280;60583;50.094;8.748;2023-08-08T02:56:42;100373.66;;;12.93;89.23
72558;BME280;60583;50.094;8.748;2023-08-08T02:59:07;100386.16;;;13.05;89.31
72558;BME280;60583;50.094;8.748;2023-08-08T03:01:33;100366.47;;;12.93;89.32
72558;BME280;60583;50.094;8.748;2023-08-08T03:04:03;100385.75;;;13.02;89.25
72558;BME280;60583;50.094;8.748;2023-08-08T03:06:28;100384.56;;;12.98;89.98
72558;BME280;60583;50.094;8.748;2023-08-08T03:08:53;100387.88;;;12.93;89.89
72558;BME280;60583;50.094;8.748;2023-08-08T03:11:19;100392.53;;;13.04;90.12
72558;BME280;60583;50.094;8.748;2023-08-08T03:13:44;100393.81;;;13.08;89.73
72558;BME280;60583;50.094;8.748;2023-08-08T03:16:10;100378.97;;;12.99;90.32
72558;BME280;60583;50.094;8.748;2023-08-08T03:18:35;100395.44;;;13.03;89.86
72558;BME280;60583;50.094;8.748;2023-08-08T03:21:00;100378.81;;;12.94;90.12
72558;BME280;60583;50.094;8.748;2023-08-08T03:23:26;100388.44;;;13.02;90.09
72558;BME280;60583;50.094;8.748;2023-08-08T03:25:51;100385.56;;;13.03;89.92
72558;BME280;60583;50.094;8.748;2023-08-08T03:28:16;100390.47;;;13.13;89.61
72558;BME280;60583;50.094;8.748;2023-08-08T03:30:42;100404.09;;;13.11;89.82
72558;BME280;60583;50.094;8.748;2023-08-08T03:33:07;100383.09;;;13.02;90.14
72558;BME280;60583;50.094;8.748;2023-08-08T03:35:32;100374.69;;;12.92;90.50
72558;BME280;60583;50.094;8.748;2023-08-08T03:37:58;100390.50;;;13.00;90.39
72558;BME280;60583;50.094;8.748;2023-08-08T03:40:23;100376.63;;;12.78;91.57
72558;BME280;60583;50.094;8.748;2023-08-08T03:42:49;100398.59;;;12.87;91.58
72558;BME280;60583;50.094;8.748;2023-08-08T03:45:14;100383.59;;;12.86;91.26
72558;BME280;60583;50.094;8.748;2023-08-08T03:47:40;100354.09;;;12.54;91.78
72558;BME280;60583;50.094;8.748;2023-08-08T03:50:07;100386.75;;;12.69;92.21
72558;BME280;60583;50.094;8.748;2023-08-08T03:52:32;100392.28;;;12.74;92.40
72558;BME280;60583;50.094;8.748;2023-08-08T03:55:04;100388.22;;;12.65;92.41
72558;BME280;60583;50.094;8.748;2023-08-08T03:57:30;100390.28;;;12.57;92.87
72558;BME280;60583;50.094;8.748;2023-08-08T03:59:55;100374.22;;;12.63;92.89
72558;BME280;60583;50.094;8.748;2023-08-08T04:02:21;100371.38;;;12.58;92.78
72558;BME280;60583;50.094;8.748;2023-08-08T04:04:47;100386.13;;;12.67;92.82
72558;BME280;60583;50.094;8.748;2023-08-08T04:07:12;100374.66;;;12.60;93.51
72558;BME280;60583;50.094;8.748;2023-08-08T04:09:37;100363.13;;;12.60;92.30
72558;BME280;60583;50.094;8.748;2023-08-08T04:12:03;100381.63;;;12.61;92.63
72558;BME280;60583;50.094;8.748;2023-08-08T04:14:29;100352.09;;;12.43;92.69
72558;BME280;60583;50.094;8.748;2023-08-08T04:16:55;100362.97;;;12.48;93.67
72558;BME280;60583;50.094;8.748;2023-08-08T04:19:20;100367.09;;;12.44;93.44
72558;BME280;60583;50.094;8.748;2023-08-08T04:21:46;100375.09;;;12.44;94.28
72558;BME280;60583;50.094;8.748;2023-08-08T04:24:11;100387.44;;;12.52;93.77
72558;BME280;60583;50.094;8.748;2023-08-08T04:26:37;100372.63;;;12.49;93.42
72558;BME280;60583;50.094;8.748;2023-08-08T04:29:03;100371.00;;;12.48;93.41
72558;BME280;60583;50.094;8.748;2023-08-08T04:31:29;100386.19;;;12.54;93.57
72558;BME280;60583;50.094;8.748;2023-08-08T04:33:54;100355.38;;;12.39;93.25
72558;BME280;60583;50.094;8.748;2023-08-08T04:36:25;100393.75;;;12.64;93.34
72558;BME280;60583;50.094;8.748;2023-08-08T04:38:50;100386.56;;;12.64;93.01
72558;BME280;60583;50.094;8.748;2023-08-08T04:41:16;100376.69;;;12.65;92.99
72558;BME280;60583;50.094;8.748;2023-08-08T04:43:41;100389.03;;;12.59;92.72
72558;BME280;60583;50.094;8.748;2023-08-08T04:46:06;100368.88;;;12.57;92.44
72558;BME280;60583;50.094;8.748;2023-08-08T04:48:32;100385.72;;;12.64;92.82
72558;BME280;60583;50.094;8.748;2023-08-08T04:50:58;100372.63;;;12.56;93.59
72558;BME280;60583;50.094;8.748;2023-08-08T04:53:23;100364.56;;;12.62;92.55
72558;BME280;60583;50.094;8.748;2023-08-08T04:55:48;100385.31;;;12.67;92.97
72558;BME280;60583;50.094;8.748;2023-08-08T04:58:14;100386.28;;;12.79;92.04
72558;BME280;60583;50.094;8.748;2023-08-08T05:00:39;100376.22;;;12.74;92.16
72558;BME280;60583;50.094;8.748;2023-08-08T05:03:05;100361.41;;;12.72;92.43
72558;BME280;60583;50.094;8.748;2023-08-08T05:05:30;100381.94;;;12.85;91.71
72558;BME280;60583;50.094;8.748;2023-08-08T05:07:55;100355.88;;;12.67;92.46
72558;BME280;60583;50.094;8.748;2023-08-08T05:10:21;100363.06;;;12.73;92.81
72558;BME280;60583;50.094;8.748;2023-08-08T05:12:46;100360.94;;;12.81;91.54
72558;BME280;60583;50.094;8.748;2023-08-08T05:15:11;100368.13;;;12.88;91.32
72558;BME280;60583;50.094;8.748;2023-08-08T05:17:37;100369.22;;;12.80;90.94
72558;BME280;60583;50.094;8.748;2023-08-08T05:20:03;100374.09;;;12.90;91.33
72558;BME280;60583;50.094;8.748;2023-08-08T05:22:29;100377.00;;;12.88;91.01
72558;BME280;60583;50.094;8.748;2023-08-08T05:24:54;100339.84;;;12.67;91.59
72558;BME280;60583;50.094;8.748;2023-08-08T05:27:19;100362.31;;;12.97;90.94
72558;BME280;60583;50.094;8.748;2023-08-08T05:29:45;100366.59;;;13.11;90.46
72558;BME280;60583;50.094;8.748;2023-08-08T05:32:10;100364.31;;;13.15;89.51
72558;BME280;60583;50.094;8.748;2023-08-08T05:34:35;100366.84;;;13.34;89.24
72558;BME280;60583;50.094;8.748;2023-08-08T05:37:01;100351.59;;;13.35;88.60
72558;BME280;60583;50.094;8.748;2023-08-08T05:39:26;100366.72;;;13.54;87.62
72558;BME280;60583;50.094;8.748;2023-08-08T05:41:52;100361.06;;;13.62;87.13
72558;BME280;60583;50.094;8.748;2023-08-08T05:44:18;100364.13;;;13.66;86.48
72558;BME280;60583;50.094;8.748;2023-08-08T05:46:43;100360.88;;;13.64;86.28
72558;BME280;60583;50.094;8.748;2023-08-08T05:49:09;100379.22;;;13.85;86.01
72558;BME280;60583;50.094;8.748;2023-08-08T05:51:34;100358.59;;;13.85;85.49
72558;BME280;60583;50.094;8.748;2023-08-08T05:54:00;100371.88;;;13.98;84.54
72558;BME280;60583;50.094;8.748;2023-08-08T05:56:33;100367.00;;;14.14;84.36
72558;BME280;60583;50.094;8.748;2023-08-08T05:58:59;100383.13;;;14.32;83.91
72558;BME280;60583;50.094;8.748;2023-08-08T06:01:24;100380.44;;;14.32;82.98
72558;BME280;60583;50.094;8.748;2023-08-08T06:03:49;100386.47;;;14.45;82.70
72558;BME280;60583;50.094;8.748;2023-08-08T06:06:15;100373.59;;;14.36;82.17
72558;BME280;60583;50.094;8.748;2023-08-08T06:08:40;100373.88;;;14.46;82.23
72558;BME280;60583;50.094;8.748;2023-08-08T06:11:06;100381.69;;;14.65;81.93
72558;BME280;60583;50.094;8.748;2023-08-08T06:13:31;100373.00;;;14.70;80.85
72558;BME280;60583;50.094;8.748;2023-08-08T06:15:56;100365.09;;;14.75;80.83
72558;BME280;60583;50.094;8.748;2023-08-08T06:18:22;100378.16;;;14.83;81.00
72558;BME280;60583;50.094;8.748;2023-08-08T06:20:47;100376.81;;;14.92;79.86
72558;BME280;60583;50.094;8.748;2023-08-08T06:23:13;100367.38;;;14.90;80.02
72558;BME280;60583;50.094;8.748;2023-08-08T06:25:40;100375.19;;;14.91;80.80
72558;BME280;60583;50.094;8.748;2023-08-08T06:28:05;100368.59;;;15.05;79.99
72558;BME280;60583;50.094;8.748;2023-08-08T06:30:31;100365.44;;;15.08;79.22
72558;BME280;60583;50.094;8.748;2023-08-08T06:32:57;100353.78;;;15.14;79.27
72558;BME280;60583;50.094;8.748;2023-08-08T06:35:22;100371.47;;;15.33;79.13
72558;BME280;60583;50.094;8.748;2023-08-08T06:37:48;100355.47;;;15.39;77.91
72558;BME280;60583;50.094;8.748;2023-08-08T06:40:13;100370.25;;;15.48;77.79
72558;BME280;60583;50.094;8.748;2023-08-08T06:42:40;100361.63;;;15.46;77.56
72558;BME280;60583;50.094;8.748;2023-08-08T06:45:06;100363.94;;;15.54;77.56
72558;BME280;60583;50.094;8.748;2023-08-08T06:47:31;100353.78;;;15.56;76.79
72558;BME280;60583;50.094;8.748;2023-08-08T06:49:57;100353.31;;;15.59;76.77
72558;BME280;60583;50.094;8.748;2023-08-08T06:52:22;100357.44;;;15.84;76.42
72558;BME280;60583;50.094;8.748;2023-08-08T06:54:48;100362.81;;;15.96;75.51
72558;BME280;60583;50.094;8.748;2023-08-08T06:57:13;100376.16;;;16.14;74.99
72558;BME280;60583;50.094;8.748;2023-08-08T06:59:38;100361.66;;;15.92;75.37
72558;BME280;60583;50.094;8.748;2023-08-08T07:02:04;100358.03;;;15.98;75.09
72558;BME280;60583;50.094;8.748;2023-08-08T07:04:29;100366.09;;;16.10;74.40
72558;BME280;60583;50.094;8.748;2023-08-08T07:06:54;100343.16;;;16.07;74.05
72558;BME280;60583;50.094;8.748;2023-08-08T07:09:20;100371.09;;;16.06;74.41
72558;BME280;60583;50.094;8.748;2023-08-08T07:11:46;100363.03;;;16.29;73.91
72558;BME280;60583;50.094;8.748;2023-08-08T07:14:11;100360.44;;;16.46;73.76
72558;BME280;60583;50.094;8.748;2023-08-08T07:16:37;100355.84;;;16.46;73.32
72558;BME280;60583;50.094;8.748;2023-08-08T07:19:02;100364.72;;;16.70;72.33
72558;BME280;60583;50.094;8.748;2023-08-08T07:21:28;100363.59;;;16.66;71.55
72558;BME280;60583;50.094;8.748;2023-08-08T07:23:54;100360.84;;;16.78;72.72
72558;BME280;60583;50.094;8.748;2023-08-08T07:26:20;100357.97;;;16.96;70.63
72558;BME280;60583;50.094;8.748;2023-08-08T07:28:47;100346.91;;;17.09;69.95
72558;BME280;60583;50.094;8.748;2023-08-08T07:31:12;100340.78;;;17.13;69.44
72558;BME280;60583;50.094;8.748;2023-08-08T07:33:38;100353.06;;;17.09;69.48
72558;BME280;60583;50.094;8.748;2023-08-08T07:36:04;100351.72;;;17.23;69.58
72558;BME280;60583;50.094;8.748;2023-08-08T07:38:29;100356.75;;;17.48;69.06
72558;BME280;60583;50.094;8.748;2023-08-08T07:40:55;100356.38;;;17.56;66.61
72558;BME280;60583;50.094;8.748;2023-08-08T07:43:20;100351.22;;;17.71;65.64
72558;BME280;60583;50.094;8.748;2023-08-08T07:45:46;100333.63;;;17.85;65.57
72558;BME280;60583;50.094;8.748;2023-08-08T07:48:11;100343.50;;;17.97;65.37
72558;BME280;60583;50.094;8.748;2023-08-08T07:50:37;100354.47;;;18.07;63.98
72558;BME280;60583;50.094;8.748;2023-08-08T07:53:02;100341.66;;;18.19;63.05
72558;BME280;60583;50.094;8.748;2023-08-08T07:55:28;100350.28;;;18.37;61.96
72558;BME280;60583;50.094;8.748;2023-08-08T07:57:53;100349.53;;;18.42;61.45
72558;BME280;60583;50.094;8.748;2023-08-08T08:00:19;100338.34;;;18.50;61.30
72558;BME280;60583;50.094;8.748;2023-08-08T08:02:45;100326.28;;;18.58;60.94
72558;BME280;60583;50.094;8.748;2023-08-08T08:05:12;100334.47;;;18.46;61.78
72558;BME280;60583;50.094;8.748;2023-08-08T08:07:39;100313.63;;;18.03;62.40
72558;BME280;60583;50.094;8.748;2023-08-08T08:10:07;100326.22;;;18.36;62.57
72558;BME280;60583;50.094;8.748;2023-08-08T08:12:34;100339.56;;;18.42;62.08
72558;BME280;60583;50.094;8.748;2023-08-08T08:15:00;100323.25;;;18.54;62.41
72558;BME280;60583;50.094;8.748;2023-08-08T08:17:25;100312.63;;;18.69;60.62
72558;BME280;60583;50.094;8.748;2023-08-08T08:19:52;100325.53;;;18.89;58.60
72558;BME280;60583;50.094;8.748;2023-08-08T08:22:18;100328.81;;;19.18;58.15
72558;BME280;60583;50.094;8.748;2023-08-08T08:24:44;100326.59;;;19.15;56.65
72558;BME280;60583;50.094;8.748;2023-08-08T08:27:09;100327.16;;;19.17;55.95
72558;BME280;60583;50.094;8.748;2023-08-08T08:29:34;100306.56;;;19.10;55.32
72558;BME280;60583;50.094;8.748;2023-08-08T08:32:00;100308.19;;;19.11;54.44
72558;BME280;60583;50.094;8.748;2023-08-08T08:34:25;100323.94;;;19.20;55.64
72558;BME280;60583;50.094;8.748;2023-08-08T08:36:51;100310.94;;;19.17;54.96
72558;BME280;60583;50.094;8.748;2023-08-08T08:39:16;100316.94;;;19.24;55.26
72558;BME280;60583;50.094;8.748;2023-08-08T08:41:42;100326.13;;;19.49;55.21
72558;BME280;60583;50.094;8.748;2023-08-08T08:44:10;100314.91;;;19.36;54.42
72558;BME280;60583;50.094;8.748;2023-08-08T08:46:35;100324.13;;;19.08;54.70
72558;BME280;60583;50.094;8.748;2023-08-08T08:49:02;100325.22;;;19.12;55.01
72558;BME280;60583;50.094;8.748;2023-08-08T08:51:29;100332.63;;;19.22;54.09
72558;BME280;60583;50.094;8.748;2023-08-08T08:53:56;100333.34;;;19.39;55.02
72558;BME280;60583;50.094;8.748;2023-08-08T08:56:23;100334.44;;;19.38;54.43
72558;BME280;60583;50.094;8.748;2023-08-08T08:58:49;100319.25;;;19.37;54.64
72558;BME280;60583;50.094;8.748;2023-08-08T09:01:15;100330.00;;;19.58;54.41
72558;BME280;60583;50.094;8.748;2023-08-08T09:03:41;100322.44;;;19.60;53.57
72558;BME280;60583;50.094;8.748;2023-08-08T09:06:08;100319.41;;;19.25;54.57
72558;BME280;60583;50.094;8.748;2023-08-08T09:08:34;100314.91;;;19.09;53.96
72558;BME280;60583;50.094;8.748;2023-08-08T09:10:59;100332.50;;;19.11;53.93
72558;BME280;60583;50.094;8.748;2023-08-08T09:13:25;100320.69;;;19.18;53.75
72558;BME280;60583;50.094;8.748;2023-08-08T09:15:52;100314.41;;;19.12;54.41
72558;BME280;60583;50.094;8.748;2023-08-08T09:18:18;100305.84;;;19.20;53.49
72558;BME280;60583;50.094;8.748;2023-08-08T09:20:49;100319.84;;;19.44;53.20
72558;BME280;60583;50.094;8.748;2023-08-08T09:23:15;100300.31;;;19.37;52.76
72558;BME280;60583;50.094;8.748;2023-08-08T09:25:40;100320.50;;;19.56;52.75
72558;BME280;60583;50.094;8.748;2023-08-08T09:28:06;100292.97;;;19.64;53.35
72558;BME280;60583;50.094;8.748;2023-08-08T09:30:31;100314.03;;;19.99;53.01
72558;BME280;60583;50.094;8.748;2023-08-08T09:33:01;100306.72;;;19.99;52.90
72558;BME280;60583;50.094;8.748;2023-08-08T09:35:29;100306.78;;;19.67;52.42
72558;BME280;60583;50.094;8.748;2023-08-08T09:37:55;100307.63;;;19.68;52.30
72558;BME280;60583;50.094;8.748;2023-08-08T09:40:22;100309.63;;;19.88;53.24
72558;BME280;60583;50.094;8.748;2023-08-08T09:42:47;100304.88;;;20.10;53.07
72558;BME280;60583;50.094;8.748;2023-08-08T09:45:15;100308.53;;;20.25;51.62
72558;BME280;60583;50.094;8.748;2023-08-08T09:47:41;100303.44;;;20.39;52.23
72558;BME280;60583;50.094;8.748;2023-08-08T09:50:07;100294.78;;;20.47;52.23
72558;BME280;60583;50.094;8.748;2023-08-08T09:52:33;100309.50;;;20.66;52.36
72558;BME280;60583;50.094;8.748;2023-08-08T09:54:59;100296.69;;;20.47;52.18
72558;BME280;60583;50.094;8.748;2023-08-08T09:57:25;100281.09;;;20.84;51.76
72558;BME280;60583;50.094;8.748;2023-08-08T09:59:51;100290.66;;;21.32;50.40
72558;BME280;60583;50.094;8.748;2023-08-08T10:02:17;100283.03;;;21.54;50.90
72558;BME280;60583;50.094;8.748;2023-08-08T10:04:45;100294.44;;;21.41;48.51
72558;BME280;60583;50.094;8.748;2023-08-08T10:07:10;100300.66;;;21.72;48.24
72558;BME280;60583;50.094;8.748;2023-08-08T10:09:36;100297.41;;;21.90;48.26
72558;BME280;60583;50.094;8.748;2023-08-08T10:12:04;100298.72;;;22.07;47.15
72558;BME280;60583;50.094;8.748;2023-08-08T10:14:35;100295.72;;;22.09;47.14
72558;BME280;60583;50.094;8.748;2023-08-08T10:17:05;100311.50;;;21.97;46.83
72558;BME280;60583;50.094;8.748;2023-08-08T10:19:31;100303.88;;;21.99;47.54
72558;BME280;60583;50.094;8.748;2023-08-08T10:21:59;100301.38;;;22.22;47.81
72558;BME280;60583;50.094;8.748;2023-08-08T10:24:25;100292.47;;;22.07;47.44
72558;BME280;60583;50.094;8.748;2023-08-08T10:26:58;100283.06;;;22.43;47.05
72558;BME280;60583;50.094;8.748;2023-08-08T10:29:26;100283.22;;;22.03;47.29
72558;BME280;60583;50.094;8.748;2023-08-08T10:32:03;100293.88;;;21.59;49.07
72558;BME280;60583;50.094;8.748;2023-08-08T10:34:38;100295.25;;;21.61;49.32
72558;BME280;60583;50.094;8.748;2023-08-08T10:37:11;100299.59;;;22.57;47.38
72558;BME280;60583;50.094;8.748;2023-08-08T10:39:37;100298.63;;;22.92;47.02
72558;BME280;60583;50.094;8.748;2023-08-08T10:42:04;100283.88;;;22.49;48.07
72558;BME280;60583;50.094;8.748;2023-08-08T10:44:30;100291.88;;;22.20;46.37
72558;BME280;60583;50.094;8.748;2023-08-08T10:46:56;100287.19;;;22.36;47.27
72558;BME280;60583;50.094;8.748;2023-08-08T10:49:21;100295.44;;;22.05;47.98
72558;BME280;60583;50.094;8.748;2023-08-08T10:51:49;100296.03;;;21.92;47.42
72558;BME280;60583;50.094;8.748;2023-08-08T10:54:18;100299.53;;;21.98;47.52
72558;BME280;60583;50.094;8.748;2023-08-08T10:56:52;100306.06;;;22.02;46.63
72558;BME280;60583;50.094;8.748;2023-08-08T10:59:24;100300.13;;;21.75;46.80
72558;BME280;60583;50.094;8.748;2023-08-08T11:01:52;100301.19;;;21.99;47.77
72558;BME280;60583;50.094;8.748;2023-08-08T11:04:22;100294.13;;;21.88;47.46
72558;BME280;60583;50.094;8.748;2023-08-08T11:06:52;100300.66;;;21.92;48.26
72558;BME280;60583;50.094;8.748;2023-08-08T11:09:19;100299.53;;;21.78;48.32
72558;BME280;60583;50.094;8.748;2023-08-08T11:11:45;100293.59;;;21.66;48.21
72558;BME280;60583;50.094;8.748;2023-08-08T11:14:13;100297.94;;;21.67;47.86
72558;BME280;60583;50.094;8.748;2023-08-08T11:16:39;100294.16;;;21.52;47.27
72558;BME280;60583;50.094;8.748;2023-08-08T11:19:05;100289.53;;;21.68;48.04
72558;BME280;60583;50.094;8.748;2023-08-08T11:21:33;100306.63;;;21.94;47.51
72558;BME280;60583;50.094;8.748;2023-08-08T11:24:00;100292.53;;;21.87;47.87
72558;BME280;60583;50.094;8.748;2023-08-08T11:26:25;100279.78;;;21.42;48.27
72558;BME280;60583;50.094;8.748;2023-08-08T11:28:52;100296.59;;;21.74;47.84
72558;BME280;60583;50.094;8.748;2023-08-08T11:31:20;100293.03;;;21.94;47.56
72558;BME280;60583;50.094;8.748;2023-08-08T11:33:47;100292.13;;;22.23;46.88
72558;BME280;60583;50.094;8.748;2023-08-08T11:36:14;100272.69;;;22.65;45.72
72558;BME280;60583;50.094;8.748;2023-08-08T11:38:40;100276.06;;;22.86;45.18
72558;BME280;60583;50.094;8.748;2023-08-08T11:41:06;100268.88;;;22.56;44.48
72558;BME280;60583;50.094;8.748;2023-08-08T11:43:31;100280.97;;;22.84;43.73
72558;BME280;60583;50.094;8.748;2023-08-08T11:46:00;100278.97;;;23.00;44.16
72558;BME280;60583;50.094;8.748;2023-08-08T11:48:26;100286.41;;;22.84;43.33
72558;BME280;60583;50.094;8.748;2023-08-08T11:50:52;100273.91;;;22.88;43.26
72558;BME280;60583;50.094;8.748;2023-08-08T11:53:19;100281.44;;;22.96;43.14
72558;BME280;60583;50.094;8.748;2023-08-08T11:55:45;100294.56;;;23.28;43.15
72558;BME280;60583;50.094;8.748;2023-08-08T11:58:14;100292.91;;;23.66;41.73
72558;BME280;60583;50.094;8.748;2023-08-08T12:00:42;100290.84;;;23.81;42.10
72558;BME280;60583;50.094;8.748;2023-08-08T12:03:08;100274.00;;;23.74;41.25
72558;BME280;60583;50.094;8.748;2023-08-08T12:05:37;100264.00;;;23.41;40.68
72558;BME280;60583;50.094;8.748;2023-08-08T12:08:05;100280.00;;;23.76;42.30
72558;BME280;60583;50.094;8.748;2023-08-08T12:10:30;100276.47;;;24.47;40.38
72558;BME280;60583;50.094;8.748;2023-08-08T12:12:57;100277.03;;;24.86;39.55
72558;BME280;60583;50.094;8.748;2023-08-08T12:15:29;100270.94;;;24.70;39.55
72558;BME280;60583;50.094;8.748;2023-08-08T12:17:55;100278.63;;;25.24;38.92
72558;BME280;60583;50.094;8.748;2023-08-08T12:20:20;100272.50;;;24.95;38.14
72558;BME280;60583;50.094;8.748;2023-08-08T12:22:45;100258.63;;;25.10;37.25
72558;BME280;60583;50.094;8.748;2023-08-08T12:25:12;100236.09;;;24.86;38.00
72558;BME280;60583;50.094;8.748;2023-08-08T12:27:38;100267.63;;;25.29;36.56
72558;BME280;60583;50.094;8.748;2023-08-08T12:30:05;100251.31;;;25.24;36.27
72558;BME280;60583;50.094;8.748;2023-08-08T12:32:31;100241.38;;;25.15;36.11
72558;BME280;60583;50.094;8.748;2023-08-08T12:34:58;100267.53;;;25.02;36.09
72558;BME280;60583;50.094;8.748;2023-08-08T12:37:23;100253.19;;;24.54;37.11
72558;BME280;60583;50.094;8.748;2023-08-08T12:39:49;100261.09;;;24.32;37.98
72558;BME280;60583;50.094;8.748;2023-08-08T12:42:15;100265.69;;;24.79;38.51
72558;BME280;60583;50.094;8.748;2023-08-08T12:44:41;100250.13;;;24.80;39.12